Jacksonville International Airport
KJAX : now visible

Airfield :











YOU CAN JOIN US ON...

 
LOGIN :

Register | Disclaimer

   EN    FR    IT 

 









Legend :    VFR   Marginal VFR   IFR   Intensive IFR   Very Intensive IFR
Visi :
Ceiling :
>= 8 km
>= 3000ft
5 to 8 km
1000 to 3000 ft
1500m to 5 km
500 to 1000 ft
800 to 1500m
200 to 500 ft
< 800m
< 200 ft
Symbols :   Thunderstorms  Fog  Heavy snow  Heavy precipitations  Wind > 20 kt






- Airport Elevation : 30 ft
- IATA code : JAX


KJAX - Jacksonville International

CURRENT METAR :
  • 080756Z 02005KT 5SM BR BKN090 13/12 A3020 RMK AO2 SLP227 T01280117

EXPIRED METARs :
  • 080656Z 01006KT 5SM BR CLR 12/11 A3021 RMK AO2 SLP229 T01220106
  • 080556Z 02004KT 4SM BR CLR 12/11 A3020 RMK AO2 SLP228 T01170106 10150 20111 58008

TAF KJAX
Valid from the 08 at 06:00 until the 09 at 06:00 UTC


080542Z 0806/0906 VRB04KT 4SM BR FEW110
FM081300 05009KT P6SM SCT025 BKN035
FM090000 04005KT P6SM SCT007 BKN020
FM090300 00000KT 4SM BR SCT003 BKN009



MET'MAP, your aeronautical weather chart ! - Copyright ORBIFLY December 2007 - Disclaimer

ORBIFLY MET'MAP TEAM :

Programming & Development : Alexandra Zaïnal
Concept & original design : Baudouin d'Aumeries
Assistance for programming : Marc-Olivier Méhu
Technical & hardware support : Manuel Goepfert

Contact : metmap@orbifly.com




SOURCES & CREDITS :

   NOAA       Earth
Advisory